createdAt,value
2023-05-14T00:01:52.789Z,7.32
2023-05-14T00:03:57.963Z,7.28
2023-05-14T00:06:03.403Z,7.22
2023-05-14T00:08:11.219Z,7.13
2023-05-14T00:10:17.792Z,7.04
2023-05-14T00:12:23.373Z,6.95
2023-05-14T00:14:28.472Z,6.99
2023-05-14T00:16:33.953Z,6.94
2023-05-14T00:18:39.121Z,7.04
2023-05-14T00:20:44.241Z,6.95
2023-05-14T00:22:49.514Z,6.84
2023-05-14T00:24:57.455Z,6.86
2023-05-14T00:27:03.003Z,6.85
2023-05-14T00:29:08.168Z,6.75
2023-05-14T00:31:13.261Z,6.70
2023-05-14T00:33:18.426Z,6.70
2023-05-14T00:35:24.316Z,6.70
2023-05-14T00:37:29.994Z,6.64
2023-05-14T00:39:35.381Z,6.69
2023-05-14T00:41:43.117Z,6.85
2023-05-14T00:43:48.534Z,6.70
2023-05-14T00:45:56.058Z,6.61
2023-05-14T00:48:01.623Z,6.53
2023-05-14T00:50:07.916Z,6.41
2023-05-14T00:52:14.607Z,6.34
2023-05-14T00:54:20.261Z,6.44
2023-05-14T00:56:25.867Z,6.52
2023-05-14T00:58:33.669Z,6.51
2023-05-14T01:00:39.009Z,6.55
2023-05-14T01:02:44.135Z,6.52
2023-05-14T01:04:49.326Z,6.54
2023-05-14T01:07:06.323Z,6.48
2023-05-14T01:09:20.541Z,6.36
2023-05-14T01:11:31.985Z,6.25
2023-05-14T01:13:47.509Z,6.25
2023-05-14T01:15:53.318Z,6.18
2023-05-14T01:18:07.200Z,6.24
2023-05-14T01:20:13.618Z,6.23
2023-05-14T01:22:21.267Z,6.24
2023-05-14T01:24:26.614Z,6.14
2023-05-14T01:26:32.256Z,6.22
2023-05-14T01:28:40.423Z,6.18
2023-05-14T01:30:52.048Z,6.23
2023-05-14T01:33:02.128Z,6.10
2023-05-14T01:35:10.386Z,5.97
2023-05-14T01:37:16.651Z,5.87
2023-05-14T01:39:26.120Z,5.95
2023-05-14T01:41:32.476Z,6.17
2023-05-14T01:43:38.377Z,6.22
2023-05-14T01:45:44.278Z,6.34
2023-05-14T01:47:49.399Z,6.29
2023-05-14T01:49:54.765Z,6.18
2023-05-14T01:52:00.073Z,6.20
2023-05-14T01:54:05.379Z,6.33
2023-05-14T01:56:13.173Z,6.33
2023-05-14T01:58:18.257Z,6.11
2023-05-14T02:00:26.385Z,5.98
2023-05-14T02:02:31.596Z,5.83
2023-05-14T02:04:36.849Z,5.69
2023-05-14T02:06:42.044Z,5.56
2023-05-14T02:08:47.341Z,5.59
2023-05-14T02:10:52.720Z,5.59
2023-05-14T02:13:00.346Z,5.57
2023-05-14T02:15:06.068Z,5.53
2023-05-14T02:17:11.178Z,5.61
2023-05-14T02:19:16.351Z,5.57
2023-05-14T02:21:21.439Z,5.54
2023-05-14T02:23:37.841Z,5.47
2023-05-14T02:25:47.969Z,5.42
2023-05-14T02:27:53.111Z,5.35
2023-05-14T02:30:01.192Z,5.29
2023-05-14T02:32:06.485Z,5.43
2023-05-14T02:34:13.043Z,5.47
2023-05-14T02:36:18.159Z,5.47
2023-05-14T02:38:24.057Z,5.49
2023-05-14T02:40:29.138Z,5.43
2023-05-14T02:42:34.390Z,5.32
2023-05-14T02:44:39.976Z,5.22
2023-05-14T02:46:49.553Z,5.12
2023-05-14T02:48:54.755Z,5.13
2023-05-14T02:51:00.125Z,5.15
2023-05-14T02:53:05.680Z,5.06
2023-05-14T02:55:12.499Z,5.02
2023-05-14T02:57:17.608Z,4.95
2023-05-14T02:59:23.784Z,4.89
2023-05-14T03:01:29.407Z,4.85
2023-05-14T03:03:39.187Z,4.94
2023-05-14T03:05:44.878Z,4.96
2023-05-14T03:07:49.923Z,4.91
2023-05-14T03:09:55.307Z,4.91
2023-05-14T03:12:00.652Z,4.97
2023-05-14T03:14:05.781Z,4.91
2023-05-14T03:16:11.612Z,4.94
2023-05-14T03:18:16.733Z,4.93
2023-05-14T03:20:26.293Z,4.95
2023-05-14T03:22:31.509Z,4.97
2023-05-14T03:24:37.633Z,4.94
2023-05-14T03:26:43.533Z,5.02
2023-05-14T03:28:48.634Z,5.08
2023-05-14T03:30:53.755Z,5.15
2023-05-14T03:32:59.624Z,5.10
2023-05-14T03:35:04.769Z,5.12
2023-05-14T03:37:14.264Z,5.32
2023-05-14T03:39:19.983Z,5.39
2023-05-14T03:41:26.509Z,5.46
2023-05-14T03:43:32.130Z,5.46
2023-05-14T03:45:38.097Z,5.51
2023-05-14T03:47:43.414Z,5.60
2023-05-14T03:49:48.616Z,5.76
2023-05-14T03:51:54.580Z,5.84
2023-05-14T03:54:02.294Z,5.87
2023-05-14T03:56:08.188Z,5.89
2023-05-14T03:58:14.705Z,5.97
2023-05-14T04:00:21.622Z,6.02
2023-05-14T04:02:27.846Z,6.11
2023-05-14T04:04:34.072Z,6.24
2023-05-14T04:06:40.723Z,6.31
2023-05-14T04:08:46.066Z,6.42
2023-05-14T04:10:53.822Z,6.59
2023-05-14T04:13:01.600Z,6.72
2023-05-14T04:15:12.968Z,6.76
2023-05-14T04:17:18.074Z,6.84
2023-05-14T04:19:23.452Z,6.90
2023-05-14T04:21:28.857Z,6.96
2023-05-14T04:23:34.459Z,7.02
2023-05-14T04:25:39.503Z,7.13
2023-05-14T04:27:47.149Z,7.24
2023-05-14T04:29:53.256Z,7.37
2023-05-14T04:31:58.642Z,7.46
2023-05-14T04:34:03.999Z,7.57
2023-05-14T04:36:09.964Z,7.62
2023-05-14T04:38:15.140Z,7.74
2023-05-14T04:40:20.706Z,7.85
2023-05-14T04:42:26.051Z,7.98
2023-05-14T04:44:34.072Z,8.10
2023-05-14T04:46:39.243Z,8.21
2023-05-14T04:48:45.065Z,8.32
2023-05-14T04:50:50.129Z,8.51
2023-05-14T04:52:56.017Z,8.62
2023-05-14T04:55:01.694Z,8.77
2023-05-14T04:57:07.405Z,8.92
2023-05-14T04:59:12.969Z,9.01
2023-05-14T05:01:21.139Z,9.10
2023-05-14T05:03:26.643Z,9.25
2023-05-14T05:05:31.820Z,9.42
2023-05-14T05:07:36.928Z,9.58
2023-05-14T05:09:42.039Z,9.77
2023-05-14T05:11:47.140Z,9.76
2023-05-14T05:13:52.189Z,9.87
2023-05-14T05:15:57.342Z,9.97
2023-05-14T05:18:05.015Z,10.05
2023-05-14T05:20:12.231Z,10.19
2023-05-14T05:22:17.942Z,10.14
2023-05-14T05:24:23.013Z,10.17
2023-05-14T05:26:29.038Z,10.27
2023-05-14T05:28:34.071Z,10.48
2023-05-14T05:30:39.241Z,10.43
2023-05-14T05:32:44.411Z,10.61
2023-05-14T05:34:52.577Z,10.59
2023-05-14T05:36:57.699Z,10.56
2023-05-14T05:39:02.730Z,10.56
2023-05-14T05:41:08.182Z,10.52
2023-05-14T05:43:14.041Z,10.55
2023-05-14T05:45:19.118Z,10.50
2023-05-14T05:47:24.265Z,10.58
2023-05-14T05:49:29.396Z,10.55
2023-05-14T05:51:37.679Z,10.62
2023-05-14T05:53:42.728Z,10.74
2023-05-14T05:55:48.354Z,10.78
2023-05-14T05:57:53.474Z,10.84
2023-05-14T05:59:58.563Z,10.89
2023-05-14T06:02:04.117Z,11.00
2023-05-14T06:04:09.187Z,11.12
2023-05-14T06:06:15.905Z,11.21
2023-05-14T06:08:23.551Z,11.30
2023-05-14T06:10:28.596Z,11.22
2023-05-14T06:12:33.921Z,11.24
2023-05-14T06:14:39.260Z,11.21
2023-05-14T06:16:44.620Z,11.23
2023-05-14T06:18:49.921Z,11.44
2023-05-14T06:20:56.821Z,11.63
2023-05-14T06:23:01.999Z,11.79
2023-05-14T06:25:11.409Z,12.07
2023-05-14T06:27:16.886Z,12.23
2023-05-14T06:29:22.387Z,12.57
2023-05-14T06:31:27.854Z,12.73
2023-05-14T06:33:33.005Z,12.81
2023-05-14T06:35:38.055Z,13.18
2023-05-14T06:37:43.292Z,13.41
2023-05-14T06:39:50.285Z,13.77
2023-05-14T06:41:58.175Z,14.02
2023-05-14T06:44:03.237Z,14.05
2023-05-14T06:46:08.323Z,14.49
2023-05-14T06:48:13.675Z,14.83
2023-05-14T06:50:19.526Z,15.24
2023-05-14T06:52:25.132Z,15.49
2023-05-14T06:54:31.212Z,15.56
2023-05-14T06:56:36.306Z,15.71
2023-05-14T06:58:44.184Z,15.85
2023-05-14T07:00:49.228Z,15.64
2023-05-14T07:02:54.313Z,15.65
2023-05-14T07:04:59.464Z,15.67
2023-05-14T07:07:04.671Z,15.38
2023-05-14T07:09:10.452Z,15.25
2023-05-14T07:11:16.424Z,14.98
2023-05-14T07:13:21.502Z,15.11
2023-05-14T07:15:29.121Z,15.32
2023-05-14T07:17:34.261Z,15.44
2023-05-14T07:19:39.356Z,15.85
2023-05-14T07:21:44.434Z,16.21
2023-05-14T07:23:50.037Z,16.27
2023-05-14T07:25:55.188Z,16.34
2023-05-14T07:28:00.484Z,16.60
2023-05-14T07:30:05.863Z,16.95
2023-05-14T07:32:15.445Z,17.06
2023-05-14T07:34:21.393Z,17.21
2023-05-14T07:36:26.506Z,17.30
2023-05-14T07:38:32.324Z,17.43
2023-05-14T07:40:37.470Z,17.30
2023-05-14T07:42:42.523Z,17.45
2023-05-14T07:44:47.874Z,17.63
2023-05-14T07:46:52.994Z,17.72
2023-05-14T07:49:00.941Z,17.72
2023-05-14T07:51:06.014Z,17.91
2023-05-14T07:53:11.306Z,18.10
2023-05-14T07:55:17.144Z,17.72
2023-05-14T07:57:23.015Z,17.95
2023-05-14T07:59:28.694Z,18.26
2023-05-14T08:01:34.407Z,18.28
2023-05-14T08:03:39.529Z,18.45
2023-05-14T08:05:47.233Z,18.72
2023-05-14T08:07:52.322Z,18.73
2023-05-14T08:09:57.725Z,18.93
2023-05-14T08:12:03.005Z,18.81
2023-05-14T08:14:08.072Z,19.16
2023-05-14T08:16:13.289Z,19.03
2023-05-14T08:18:18.409Z,19.73
2023-05-14T08:20:24.572Z,19.44
2023-05-14T08:22:32.547Z,19.22
2023-05-14T08:24:37.900Z,19.38
2023-05-14T08:26:43.111Z,19.79
2023-05-14T08:28:48.169Z,19.57
2023-05-14T08:30:53.639Z,20.13
2023-05-14T08:32:58.809Z,19.80
2023-05-14T08:35:03.920Z,19.96
2023-05-14T08:37:08.970Z,20.10
2023-05-14T08:39:16.903Z,20.47
2023-05-14T08:41:22.403Z,20.19
2023-05-14T08:43:32.452Z,20.35
2023-05-14T08:45:40.367Z,20.84
2023-05-14T08:47:47.498Z,20.42
2023-05-14T08:50:01.531Z,20.48
2023-05-14T08:52:08.717Z,20.99
2023-05-14T08:54:18.954Z,21.22
2023-05-14T08:56:24.816Z,21.65
2023-05-14T08:58:30.163Z,21.31
2023-05-14T09:00:35.481Z,21.39
2023-05-14T09:02:42.518Z,21.05
2023-05-14T09:04:48.815Z,21.03
2023-05-14T09:06:56.356Z,21.18
2023-05-14T09:09:01.603Z,21.25
2023-05-14T09:11:09.543Z,21.25
2023-05-14T09:13:14.854Z,20.86
2023-05-14T09:15:20.091Z,21.05
2023-05-14T09:17:28.213Z,21.37
2023-05-14T09:19:33.680Z,21.57
2023-05-14T09:21:39.468Z,21.69
2023-05-14T09:23:47.931Z,21.48
2023-05-14T09:25:53.003Z,20.56
2023-05-14T09:28:01.445Z,20.58
2023-05-14T09:30:10.884Z,20.98
2023-05-14T09:32:15.986Z,21.03
2023-05-14T09:34:28.013Z,21.27
2023-05-14T09:36:33.131Z,21.43
2023-05-14T09:38:38.778Z,21.54
2023-05-14T09:40:44.434Z,21.54
2023-05-14T09:42:51.359Z,21.55
2023-05-14T09:44:59.675Z,21.83
2023-05-14T09:47:05.024Z,21.62
2023-05-14T09:49:10.411Z,21.83
2023-05-14T09:51:17.717Z,22.09
2023-05-14T09:53:23.358Z,22.29
2023-05-14T09:55:29.447Z,22.39
2023-05-14T09:57:34.793Z,22.68
2023-05-14T09:59:40.006Z,22.18
2023-05-14T10:01:48.297Z,21.59
2023-05-14T10:03:53.907Z,21.56
2023-05-14T10:06:03.760Z,21.76
2023-05-14T10:08:13.504Z,21.48
2023-05-14T10:10:22.544Z,21.23
2023-05-14T10:12:31.484Z,21.26
2023-05-14T10:14:45.917Z,22.13
2023-05-14T10:16:56.426Z,22.23
2023-05-14T10:19:08.987Z,22.89
2023-05-14T10:21:14.495Z,22.91
2023-05-14T10:23:19.840Z,22.50
2023-05-14T10:25:25.877Z,22.04
2023-05-14T10:27:31.172Z,21.76
2023-05-14T10:29:37.548Z,21.62
2023-05-14T10:31:56.836Z,21.49
2023-05-14T10:34:02.459Z,21.40
2023-05-14T10:36:10.175Z,21.17
2023-05-14T10:38:18.333Z,21.16
2023-05-14T10:40:26.541Z,21.04
2023-05-14T10:42:40.821Z,21.29
2023-05-14T10:44:58.864Z,20.74
2023-05-14T10:47:08.109Z,21.11
2023-05-14T10:49:14.230Z,21.33
2023-05-14T10:51:23.163Z,21.57
2023-05-14T10:53:36.861Z,21.26
2023-05-14T10:55:42.412Z,20.96
2023-05-14T10:57:49.372Z,21.14
2023-05-14T10:59:57.159Z,21.01
2023-05-14T11:02:02.323Z,20.94
2023-05-14T11:04:10.840Z,20.93
2023-05-14T11:06:18.043Z,20.99
2023-05-14T11:08:26.548Z,20.75
2023-05-14T11:10:33.561Z,20.74
2023-05-14T11:12:40.898Z,20.91
2023-05-14T11:14:46.262Z,21.34
2023-05-14T11:16:51.540Z,21.50
2023-05-14T11:19:04.721Z,21.30
2023-05-14T11:21:12.224Z,21.90
2023-05-14T11:23:17.705Z,21.75
2023-05-14T11:25:25.961Z,21.57
2023-05-14T11:27:32.031Z,21.72
2023-05-14T11:29:37.376Z,21.51
2023-05-14T11:31:43.133Z,21.44
2023-05-14T11:33:48.203Z,21.20
2023-05-14T11:35:53.298Z,21.32
2023-05-14T11:38:01.377Z,22.10
2023-05-14T11:40:17.875Z,22.71
2023-05-14T11:42:25.932Z,23.12
2023-05-14T11:44:31.381Z,23.42
2023-05-14T11:46:36.546Z,23.98
2023-05-14T11:48:42.248Z,23.94
2023-05-14T11:50:50.178Z,24.20
2023-05-14T11:53:02.268Z,24.06
2023-05-14T11:55:08.862Z,24.40
2023-05-14T11:57:16.393Z,24.61
2023-05-14T11:59:21.637Z,24.13
2023-05-14T12:01:28.668Z,24.13
2023-05-14T12:03:34.229Z,25.00
2023-05-14T12:05:42.640Z,25.43
2023-05-14T12:07:48.337Z,25.19
2023-05-14T12:09:56.011Z,25.12
2023-05-14T12:12:01.155Z,26.00
2023-05-14T12:14:15.246Z,26.03
2023-05-14T12:16:20.363Z,26.31
2023-05-14T12:18:27.545Z,26.78
2023-05-14T12:20:33.122Z,26.74
2023-05-14T12:22:38.232Z,26.25
2023-05-14T12:24:43.354Z,25.47
2023-05-14T12:26:53.693Z,23.89
2023-05-14T12:29:02.552Z,23.34
2023-05-14T12:31:08.085Z,22.90
2023-05-14T12:33:13.614Z,22.64
2023-05-14T12:35:19.251Z,22.08
2023-05-14T12:37:24.366Z,21.28
2023-05-14T12:39:29.781Z,21.24
2023-05-14T12:41:36.334Z,21.18
2023-05-14T12:43:46.736Z,20.95
2023-05-14T12:45:52.164Z,20.88
2023-05-14T12:47:57.219Z,20.73
2023-05-14T12:50:02.302Z,20.91
2023-05-14T12:54:22.296Z,20.96
2023-05-14T12:56:28.616Z,20.90
2023-05-14T12:58:33.766Z,20.96
2023-05-14T13:00:41.697Z,20.87
2023-05-14T13:02:46.851Z,21.00
2023-05-14T13:04:52.199Z,22.32
2023-05-14T13:06:57.820Z,23.90
2023-05-14T13:09:03.500Z,24.98
2023-05-14T13:11:08.967Z,26.32
2023-05-14T13:13:15.176Z,26.39
2023-05-14T13:15:20.291Z,27.01
2023-05-14T13:17:28.233Z,27.19
2023-05-14T13:19:33.310Z,27.37
2023-05-14T13:21:38.824Z,25.78
2023-05-14T13:23:43.898Z,25.40
2023-05-14T13:25:50.074Z,25.31
2023-05-14T13:27:55.247Z,24.72
2023-05-14T13:30:00.854Z,23.92
2023-05-14T13:32:06.319Z,23.49
2023-05-14T13:34:13.960Z,23.33
2023-05-14T13:36:19.248Z,23.21
2023-05-14T13:38:24.336Z,23.38
2023-05-14T13:40:29.594Z,24.38
2023-05-14T13:42:34.667Z,25.09
2023-05-14T13:44:39.721Z,25.48
2023-05-14T13:46:45.213Z,26.09
2023-05-14T13:48:50.444Z,27.27
2023-05-14T13:50:58.188Z,28.70
2023-05-14T13:53:03.237Z,29.63
2023-05-14T13:55:10.481Z,29.79
2023-05-14T13:57:15.622Z,29.50
2023-05-14T13:59:21.378Z,28.78
2023-05-14T14:01:26.594Z,29.78
2023-05-14T14:03:31.687Z,30.25
2023-05-14T14:05:37.799Z,29.88
2023-05-14T14:09:50.893Z,27.40
2023-05-14T14:11:56.079Z,26.25
2023-05-14T14:14:01.173Z,25.88
2023-05-14T14:16:06.684Z,26.07
2023-05-14T14:18:11.728Z,27.33
2023-05-14T14:20:16.917Z,27.80
2023-05-14T14:22:22.812Z,28.90
2023-05-14T14:24:31.416Z,29.73
2023-05-14T14:26:36.724Z,29.71
2023-05-14T14:28:42.785Z,28.00
2023-05-14T14:30:47.921Z,27.17
2023-05-14T14:32:53.484Z,26.14
2023-05-14T14:34:58.585Z,25.56
2023-05-14T14:37:04.035Z,26.62
2023-05-14T14:39:09.350Z,26.96
2023-05-14T14:41:17.042Z,27.98
2023-05-14T14:43:22.103Z,29.02
2023-05-14T14:45:27.688Z,27.49
2023-05-14T14:47:32.969Z,26.44
2023-05-14T14:49:38.059Z,25.93
2023-05-14T14:51:43.576Z,24.80
2023-05-14T14:53:49.399Z,24.78
2023-05-14T14:55:55.182Z,25.94
2023-05-14T14:58:02.803Z,27.97
2023-05-14T15:00:10.359Z,29.67
2023-05-14T15:02:15.615Z,30.92
2023-05-14T15:04:20.677Z,31.88
2023-05-14T15:06:25.728Z,32.07
2023-05-14T15:08:31.369Z,31.39
2023-05-14T15:10:38.379Z,31.80
2023-05-14T15:12:43.690Z,31.66
2023-05-14T15:14:51.317Z,31.82
2023-05-14T15:16:56.724Z,32.76
2023-05-14T15:19:01.840Z,33.14
2023-05-14T15:21:07.299Z,33.02
2023-05-14T15:23:12.394Z,33.59
2023-05-14T15:25:17.517Z,32.40
2023-05-14T15:27:22.642Z,33.19
2023-05-14T15:29:28.807Z,33.40
2023-05-14T15:31:36.618Z,33.09
2023-05-14T15:33:41.858Z,33.83
2023-05-14T15:35:46.907Z,34.19
2023-05-14T15:37:52.152Z,33.56
2023-05-14T15:39:57.232Z,33.53
2023-05-14T15:42:02.376Z,33.28
2023-05-14T15:44:07.986Z,33.22
2023-05-14T15:46:14.445Z,34.38
2023-05-14T15:48:22.153Z,34.18
2023-05-14T15:50:27.518Z,33.62
2023-05-14T15:52:32.711Z,32.83
2023-05-14T15:54:37.853Z,33.37
2023-05-14T15:56:43.409Z,33.36
2023-05-14T15:58:48.438Z,33.29
2023-05-14T16:00:53.766Z,32.85
2023-05-14T16:02:58.899Z,33.52
2023-05-14T16:05:07.682Z,34.12
2023-05-14T16:07:13.578Z,32.32
2023-05-14T16:09:18.750Z,30.02
2023-05-14T16:11:24.452Z,28.83
2023-05-14T16:13:29.506Z,28.33
2023-05-14T16:15:34.786Z,27.38
2023-05-14T16:17:39.959Z,26.11
2023-05-14T16:19:45.207Z,27.12
2023-05-14T16:21:52.920Z,28.61
2023-05-14T16:23:58.036Z,28.24
2023-05-14T16:26:03.418Z,29.27
2023-05-14T16:28:08.567Z,30.02
2023-05-14T16:30:14.767Z,30.32
2023-05-14T16:32:20.378Z,30.83
2023-05-14T16:34:25.451Z,31.46
2023-05-14T16:36:31.647Z,29.81
2023-05-14T16:38:48.200Z,29.12
2023-05-14T16:41:02.213Z,28.13
2023-05-14T16:43:07.480Z,27.06
2023-05-14T16:45:14.404Z,25.86
2023-05-14T16:47:19.694Z,25.20
2023-05-14T16:49:25.114Z,24.31
2023-05-14T16:51:30.520Z,23.79
2023-05-14T16:53:38.279Z,23.47
2023-05-14T16:55:43.638Z,23.18
2023-05-14T16:57:49.222Z,22.41
2023-05-14T16:59:54.300Z,22.00
2023-05-14T17:01:59.746Z,21.92
2023-05-14T17:04:04.898Z,21.75
2023-05-14T17:06:10.571Z,21.48
2023-05-14T17:08:16.020Z,21.32
2023-05-14T17:10:25.790Z,21.30
2023-05-14T17:12:30.899Z,21.35
2023-05-14T17:14:36.002Z,21.31
2023-05-14T17:16:42.478Z,21.23
2023-05-14T17:18:48.463Z,21.30
2023-05-14T17:20:53.813Z,20.68
2023-05-14T17:22:59.250Z,19.71
2023-05-14T17:25:04.582Z,19.24
2023-05-14T17:27:13.106Z,18.66
2023-05-14T17:29:19.537Z,18.21
2023-05-14T17:31:25.011Z,17.61
2023-05-14T17:33:30.405Z,17.43
2023-05-14T17:35:36.541Z,17.18
2023-05-14T17:37:43.217Z,16.59
2023-05-14T17:39:48.379Z,16.49
2023-05-14T17:41:53.440Z,16.33
2023-05-14T17:44:01.124Z,16.19
2023-05-14T17:46:06.977Z,15.90
2023-05-14T17:48:12.083Z,15.72
2023-05-14T17:50:17.223Z,15.77
2023-05-14T17:52:22.282Z,15.75
2023-05-14T17:54:27.992Z,15.95
2023-05-14T17:56:33.066Z,16.30
2023-05-14T17:58:38.230Z,16.37
2023-05-14T18:00:46.507Z,16.58
2023-05-14T18:02:51.675Z,16.77
2023-05-14T18:04:57.346Z,17.39
2023-05-14T18:07:03.375Z,17.47
2023-05-14T18:09:08.512Z,17.48
2023-05-14T18:11:13.587Z,17.16
2023-05-14T18:13:18.660Z,17.04
2023-05-14T18:15:25.820Z,16.74
2023-05-14T18:17:33.948Z,16.66
2023-05-14T18:19:41.047Z,16.09
2023-05-14T18:21:48.364Z,15.67
2023-05-14T18:23:53.702Z,15.55
2023-05-14T18:25:59.080Z,15.35
2023-05-14T18:28:04.322Z,15.21
2023-05-14T18:30:12.431Z,15.05
2023-05-14T18:32:17.881Z,15.05
2023-05-14T18:34:25.538Z,14.89
2023-05-14T18:36:30.961Z,14.77
2023-05-14T18:38:36.072Z,14.59
2023-05-14T18:40:41.345Z,14.51
2023-05-14T18:42:46.470Z,14.16
2023-05-14T18:44:51.543Z,14.06
2023-05-14T18:46:59.849Z,13.94
2023-05-14T18:49:04.953Z,13.82
2023-05-14T18:51:13.482Z,13.76
2023-05-14T18:53:18.536Z,13.70
2023-05-14T18:55:23.823Z,13.56
2023-05-14T18:57:32.887Z,13.42
2023-05-14T18:59:40.698Z,13.32
2023-05-14T19:01:45.953Z,13.21
2023-05-14T19:03:51.147Z,13.06
2023-05-14T19:05:57.796Z,13.03
2023-05-14T19:08:06.084Z,12.93
2023-05-14T19:10:13.226Z,12.78
2023-05-14T19:12:18.300Z,12.67
2023-05-14T19:14:23.351Z,12.54
2023-05-14T19:16:28.438Z,12.42
2023-05-14T19:18:33.838Z,12.35
2023-05-14T19:20:38.967Z,12.25
2023-05-14T19:22:44.035Z,12.18
2023-05-14T19:24:51.689Z,12.18
2023-05-14T19:26:57.294Z,12.10
2023-05-14T19:29:02.398Z,12.01
2023-05-14T19:31:07.613Z,11.98
2023-05-14T19:33:12.785Z,12.03
2023-05-14T19:35:18.153Z,12.17
2023-05-14T19:37:23.263Z,12.11
2023-05-14T19:39:28.330Z,11.98
2023-05-14T19:41:36.298Z,11.88
2023-05-14T19:43:41.475Z,11.87
2023-05-14T19:45:46.551Z,11.89
2023-05-14T19:47:51.876Z,11.96
2023-05-14T19:49:56.922Z,12.01
2023-05-14T19:52:01.971Z,11.86
2023-05-14T19:54:07.282Z,11.86
2023-05-14T19:56:12.430Z,11.87
2023-05-14T19:58:20.109Z,11.85
2023-05-14T20:00:26.741Z,11.87
2023-05-14T20:02:32.203Z,11.84
2023-05-14T20:04:40.120Z,11.83
2023-05-14T20:06:47.359Z,11.86
2023-05-14T20:08:53.115Z,11.85
2023-05-14T20:10:58.812Z,11.85
2023-05-14T20:13:03.836Z,11.69
2023-05-14T20:15:13.207Z,11.55
2023-05-14T20:17:18.344Z,11.47
2023-05-14T20:19:23.700Z,11.46
2023-05-14T20:21:29.654Z,11.40
2023-05-14T20:23:34.870Z,11.35
2023-05-14T20:25:39.935Z,11.25
2023-05-14T20:27:45.196Z,11.22
2023-05-14T20:29:51.487Z,10.97
2023-05-14T20:31:59.388Z,10.92
2023-05-14T20:34:04.467Z,10.87
2023-05-14T20:36:10.123Z,10.84
2023-05-14T20:38:15.411Z,10.78
2023-05-14T20:40:21.569Z,10.68
2023-05-14T20:42:26.902Z,10.60
2023-05-14T20:44:31.950Z,10.52
2023-05-14T20:46:37.057Z,10.55
2023-05-14T20:48:44.773Z,10.45
2023-05-14T20:50:50.156Z,10.33
2023-05-14T20:52:55.214Z,10.34
2023-05-14T20:55:02.142Z,10.33
2023-05-14T20:57:08.369Z,10.25
2023-05-14T20:59:13.471Z,10.14
2023-05-14T21:01:18.579Z,10.15
2023-05-14T21:03:23.804Z,10.17
2023-05-14T21:05:31.863Z,10.04
2023-05-14T21:07:37.504Z,9.89
2023-05-14T21:09:44.069Z,9.90
2023-05-14T21:11:49.146Z,9.86
2023-05-14T21:13:54.617Z,9.82
2023-05-14T21:16:00.635Z,9.86
2023-05-14T21:18:05.815Z,9.98
2023-05-14T21:20:13.988Z,9.99
2023-05-14T21:22:21.620Z,9.92
2023-05-14T21:24:26.729Z,9.71
2023-05-14T21:26:36.974Z,9.54
2023-05-14T21:28:42.268Z,9.53
2023-05-14T21:30:47.826Z,9.57
2023-05-14T21:32:53.033Z,9.56
2023-05-14T21:34:58.096Z,9.46
2023-05-14T21:37:03.754Z,9.40
2023-05-14T21:39:11.800Z,9.36
2023-05-14T21:41:17.439Z,9.29
2023-05-14T21:43:22.486Z,9.27
2023-05-14T21:45:27.788Z,9.27
2023-05-14T21:47:33.152Z,9.14
2023-05-14T21:49:38.570Z,9.05
2023-05-14T21:51:44.066Z,8.94
2023-05-14T21:53:50.406Z,8.92
2023-05-14T21:55:58.140Z,8.95
2023-05-14T21:58:04.447Z,8.93
2023-05-14T22:00:13.624Z,9.19
2023-05-14T22:02:20.764Z,9.09
2023-05-14T22:04:26.062Z,8.90
2023-05-14T22:06:31.329Z,8.77
2023-05-14T22:08:37.085Z,8.70
2023-05-14T22:10:42.179Z,8.68
2023-05-14T22:12:49.923Z,8.61
2023-05-14T22:14:57.781Z,8.60
2023-05-14T22:17:03.224Z,8.63
2023-05-14T22:19:08.522Z,8.61
2023-05-14T22:21:13.622Z,8.47
2023-05-14T22:23:18.964Z,8.42
2023-05-14T22:25:24.195Z,8.41
2023-05-14T22:27:30.028Z,8.34
2023-05-14T22:29:38.366Z,8.24
2023-05-14T22:31:44.253Z,8.32
2023-05-14T22:33:49.367Z,8.34
2023-05-14T22:35:55.028Z,8.22
2023-05-14T22:38:00.155Z,8.42
2023-05-14T22:40:05.334Z,8.42
2023-05-14T22:42:11.146Z,8.45
2023-05-14T22:44:16.206Z,8.42
2023-05-14T22:46:24.212Z,8.41
2023-05-14T22:48:29.688Z,8.29
2023-05-14T22:50:34.912Z,8.15
2023-05-14T22:52:40.238Z,8.06
2023-05-14T22:54:45.306Z,8.01
2023-05-14T22:56:51.422Z,7.99
2023-05-14T22:58:56.480Z,8.01
2023-05-14T23:01:01.736Z,7.99
2023-05-14T23:03:09.414Z,8.10
2023-05-14T23:05:15.536Z,7.98
2023-05-14T23:07:20.618Z,7.88
2023-05-14T23:09:25.693Z,7.77
2023-05-14T23:11:30.857Z,7.77
2023-05-14T23:13:36.217Z,7.72
2023-05-14T23:15:41.871Z,7.69
2023-05-14T23:17:47.159Z,7.66
2023-05-14T23:19:56.089Z,7.62
2023-05-14T23:22:01.547Z,7.64
2023-05-14T23:24:07.691Z,7.66
2023-05-14T23:26:13.515Z,7.71
2023-05-14T23:28:18.762Z,7.81
2023-05-14T23:30:23.825Z,7.77
2023-05-14T23:32:29.267Z,7.72
2023-05-14T23:34:34.786Z,7.66
2023-05-14T23:36:46.071Z,7.61
2023-05-14T23:38:51.542Z,7.52
2023-05-14T23:40:56.900Z,7.43
2023-05-14T23:43:02.981Z,7.36
2023-05-14T23:45:09.890Z,7.28
2023-05-14T23:47:15.356Z,7.26
2023-05-14T23:49:21.689Z,7.35
2023-05-14T23:51:27.316Z,7.48
2023-05-14T23:53:35.012Z,7.51
2023-05-14T23:55:41.135Z,7.30
2023-05-14T23:57:46.715Z,7.17
2023-05-14T23:59:51.975Z,7.11
